Airfield :
LOGIN :

Register | Disclaimer

   EN    FR    IT 

 










Legend :    VFR   Marginal VFR   IFR   Intensive IFR   Very Intensive IFR
Visi :
Ceiling :
>= 8 km
>= 3000ft
5 to 8 km
1000 to 3000 ft
1500m to 5 km
500 to 1000 ft
800 to 1500m
200 to 500 ft
< 800m
< 200 ft
Symbols :   Thunderstorms  Fog  Heavy snow  Heavy precipitations  Wind > 20 kt
SIGMETs :     Misc.  Thunderstorms  Icing  Turbulence  Mountain Waves  Volcanic Ashes






- Airport Elevation : 33 ft
- IATA code : PLQ


EYPA - Palanga

CURRENT METAR :
  • 220850Z 22012G22KT 190V260 9999 BKN021 14/12 Q1002

EXPIRED METARs :
  • 220820Z 22011KT 190V280 9999 BKN040 15/11 Q1002
  • 220750Z 22012KT 190V260 9999 FEW029 BKN054 15/11 Q1002
  • 220720Z 21011KT 180V240 9999 BKN043 14/11 Q1002
  • 220650Z 20013KT 9999 BKN047 14/11 Q1002
  • 220620Z 20014KT 180V240 9999 FEW038 BKN047 14/11 Q1002

TAF TAF EYPA
Valid from the 22 at 06:00 until the 23 at 06:00 UTC


220508Z 2206/2306 19012G22KT 8000 BKN020
FM220800 25022G32KT
TEMPO 2208/2212 25022G42KT SCT010 BKN015CB
BECMG 2218/2219 24010KT BKN005 BKN015
TEMPO 2220/2224 BKN018CB



MET'MAP, your aeronautical weather chart ! - Copyright ORBIFLY December 2007 - Disclaimer

ORBIFLY MET'MAP TEAM :

Programming & Development : Alexandra Zaïnal
Concept & original design : Baudouin d'Aumeries
Assistance for programming : Marc-Olivier Méhu
Technical & hardware support : Manuel Goepfert

Contact : metmap@orbifly.com




SOURCES & CREDITS :

   NOAA